sensor_id;sensor_type;location;lat;lon;timestamp;P1;durP1;ratioP1;P2;durP2;ratioP2
5412;SDS011;2729;50.056;8.678;2023-02-21T00:01:54;4.10;;;2.30;;
5412;SDS011;2729;50.056;8.678;2023-02-21T00:04:39;4.10;;;2.40;;
5412;SDS011;2729;50.056;8.678;2023-02-21T00:07:24;3.20;;;2.57;;
5412;SDS011;2729;50.056;8.678;2023-02-21T00:10:10;5.47;;;2.80;;
5412;SDS011;2729;50.056;8.678;2023-02-21T00:12:56;4.50;;;2.33;;
5412;SDS011;2729;50.056;8.678;2023-02-21T00:15:40;2.47;;;2.23;;
5412;SDS011;2729;50.056;8.678;2023-02-21T00:18:25;5.00;;;3.00;;
5412;SDS011;2729;50.056;8.678;2023-02-21T00:21:10;6.50;;;2.90;;
5412;SDS011;2729;50.056;8.678;2023-02-21T00:23:54;4.00;;;3.00;;
5412;SDS011;2729;50.056;8.678;2023-02-21T00:26:39;6.03;;;2.33;;
5412;SDS011;2729;50.056;8.678;2023-02-21T00:29:23;4.30;;;2.20;;
5412;SDS011;2729;50.056;8.678;2023-02-21T00:32:07;3.60;;;2.53;;
5412;SDS011;2729;50.056;8.678;2023-02-21T00:34:52;5.23;;;2.47;;
5412;SDS011;2729;50.056;8.678;2023-02-21T00:37:36;4.83;;;3.20;;
5412;SDS011;2729;50.056;8.678;2023-02-21T00:40:21;2.50;;;2.30;;
5412;SDS011;2729;50.056;8.678;2023-02-21T00:43:06;9.07;;;2.87;;
5412;SDS011;2729;50.056;8.678;2023-02-21T00:45:51;2.77;;;2.23;;
5412;SDS011;2729;50.056;8.678;2023-02-21T00:48:35;3.57;;;2.73;;
5412;SDS011;2729;50.056;8.678;2023-02-21T00:51:19;4.13;;;2.97;;
5412;SDS011;2729;50.056;8.678;2023-02-21T00:54:04;9.83;;;3.27;;
5412;SDS011;2729;50.056;8.678;2023-02-21T00:56:48;5.83;;;3.10;;
5412;SDS011;2729;50.056;8.678;2023-02-21T00:59:33;6.03;;;3.10;;
5412;SDS011;2729;50.056;8.678;2023-02-21T01:02:17;3.40;;;2.93;;
5412;SDS011;2729;50.056;8.678;2023-02-21T01:05:02;3.53;;;3.00;;
5412;SDS011;2729;50.056;8.678;2023-02-21T01:07:46;5.87;;;3.60;;
5412;SDS011;2729;50.056;8.678;2023-02-21T01:10:31;3.43;;;3.00;;
5412;SDS011;2729;50.056;8.678;2023-02-21T01:13:15;5.67;;;3.60;;
5412;SDS011;2729;50.056;8.678;2023-02-21T01:16:00;5.57;;;3.50;;
5412;SDS011;2729;50.056;8.678;2023-02-21T01:18:45;10.13;;;3.77;;
5412;SDS011;2729;50.056;8.678;2023-02-21T01:21:30;9.53;;;3.47;;
5412;SDS011;2729;50.056;8.678;2023-02-21T01:24:15;8.93;;;3.73;;
5412;SDS011;2729;50.056;8.678;2023-02-21T01:26:59;5.33;;;3.83;;
5412;SDS011;2729;50.056;8.678;2023-02-21T01:29:47;5.20;;;3.40;;
5412;SDS011;2729;50.056;8.678;2023-02-21T01:32:32;5.83;;;3.10;;
5412;SDS011;2729;50.056;8.678;2023-02-21T01:35:16;9.17;;;3.80;;
5412;SDS011;2729;50.056;8.678;2023-02-21T01:38:01;4.07;;;3.23;;
5412;SDS011;2729;50.056;8.678;2023-02-21T01:40:45;3.37;;;3.07;;
5412;SDS011;2729;50.056;8.678;2023-02-21T01:43:30;4.63;;;3.50;;
5412;SDS011;2729;50.056;8.678;2023-02-21T01:46:18;5.07;;;3.30;;
5412;SDS011;2729;50.056;8.678;2023-02-21T01:49:12;7.00;;;3.47;;
5412;SDS011;2729;50.056;8.678;2023-02-21T01:52:01;7.57;;;3.60;;
5412;SDS011;2729;50.056;8.678;2023-02-21T01:54:48;5.13;;;3.50;;
5412;SDS011;2729;50.056;8.678;2023-02-21T01:57:36;7.40;;;3.53;;
5412;SDS011;2729;50.056;8.678;2023-02-21T02:00:22;8.23;;;3.60;;
5412;SDS011;2729;50.056;8.678;2023-02-21T02:03:08;6.10;;;3.40;;
5412;SDS011;2729;50.056;8.678;2023-02-21T02:05:57;7.90;;;3.90;;
5412;SDS011;2729;50.056;8.678;2023-02-21T02:08:45;5.00;;;4.13;;
5412;SDS011;2729;50.056;8.678;2023-02-21T02:23:22;10.33;;;3.13;;
5412;SDS011;2729;50.056;8.678;2023-02-21T02:31:30;5.77;;;3.60;;
5412;SDS011;2729;50.056;8.678;2023-02-21T02:34:19;7.20;;;3.50;;
5412;SDS011;2729;50.056;8.678;2023-02-21T02:37:16;8.20;;;3.10;;
5412;SDS011;2729;50.056;8.678;2023-02-21T02:39:54;12.27;;;4.37;;
5412;SDS011;2729;50.056;8.678;2023-02-21T02:45:04;11.30;;;3.97;;
5412;SDS011;2729;50.056;8.678;2023-02-21T02:47:38;10.30;;;4.00;;
5412;SDS011;2729;50.056;8.678;2023-02-21T02:50:08;9.07;;;3.40;;
5412;SDS011;2729;50.056;8.678;2023-02-21T02:52:35;6.00;;;4.03;;
5412;SDS011;2729;50.056;8.678;2023-02-21T02:55:03;6.00;;;3.43;;
5412;SDS011;2729;50.056;8.678;2023-02-21T02:57:51;3.67;;;3.10;;
5412;SDS011;2729;50.056;8.678;2023-02-21T03:00:19;13.53;;;3.43;;
5412;SDS011;2729;50.056;8.678;2023-02-21T03:05:52;4.43;;;3.33;;
5412;SDS011;2729;50.056;8.678;2023-02-21T03:08:38;7.93;;;3.33;;
5412;SDS011;2729;50.056;8.678;2023-02-21T03:11:13;3.70;;;3.27;;
5412;SDS011;2729;50.056;8.678;2023-02-21T03:13:44;3.20;;;2.60;;
5412;SDS011;2729;50.056;8.678;2023-02-21T03:16:31;6.00;;;3.10;;
5412;SDS011;2729;50.056;8.678;2023-02-21T03:21:41;8.80;;;3.30;;
5412;SDS011;2729;50.056;8.678;2023-02-21T03:24:12;4.80;;;3.63;;
5412;SDS011;2729;50.056;8.678;2023-02-21T03:26:39;5.27;;;3.27;;
5412;SDS011;2729;50.056;8.678;2023-02-21T03:29:44;3.10;;;2.80;;
5412;SDS011;2729;50.056;8.678;2023-02-21T03:32:19;3.20;;;2.90;;
5412;SDS011;2729;50.056;8.678;2023-02-21T03:34:50;5.33;;;3.50;;
5412;SDS011;2729;50.056;8.678;2023-02-21T03:37:21;4.30;;;3.30;;
5412;SDS011;2729;50.056;8.678;2023-02-21T03:39:55;4.73;;;3.07;;
5412;SDS011;2729;50.056;8.678;2023-02-21T03:42:21;5.90;;;3.27;;
5412;SDS011;2729;50.056;8.678;2023-02-21T03:44:47;5.63;;;3.20;;
5412;SDS011;2729;50.056;8.678;2023-02-21T03:47:14;3.80;;;3.37;;
5412;SDS011;2729;50.056;8.678;2023-02-21T03:49:40;2.90;;;2.80;;
5412;SDS011;2729;50.056;8.678;2023-02-21T03:52:06;4.97;;;2.90;;
5412;SDS011;2729;50.056;8.678;2023-02-21T03:54:40;9.30;;;3.60;;
5412;SDS011;2729;50.056;8.678;2023-02-21T03:57:08;6.30;;;3.23;;
5412;SDS011;2729;50.056;8.678;2023-02-21T03:59:39;3.20;;;2.70;;
5412;SDS011;2729;50.056;8.678;2023-02-21T04:02:06;5.63;;;2.90;;
5412;SDS011;2729;50.056;8.678;2023-02-21T04:04:33;3.00;;;2.80;;
5412;SDS011;2729;50.056;8.678;2023-02-21T04:07:07;4.00;;;3.07;;
5412;SDS011;2729;50.056;8.678;2023-02-21T04:09:35;5.10;;;3.20;;
5412;SDS011;2729;50.056;8.678;2023-02-21T04:12:03;5.23;;;2.90;;
5412;SDS011;2729;50.056;8.678;2023-02-21T04:14:30;3.40;;;3.10;;
5412;SDS011;2729;50.056;8.678;2023-02-21T04:16:56;2.93;;;2.63;;
5412;SDS011;2729;50.056;8.678;2023-02-21T04:19:22;3.97;;;2.80;;
5412;SDS011;2729;50.056;8.678;2023-02-21T04:21:48;3.73;;;3.37;;
5412;SDS011;2729;50.056;8.678;2023-02-21T04:24:14;5.23;;;3.17;;
5412;SDS011;2729;50.056;8.678;2023-02-21T04:26:41;6.93;;;2.77;;
5412;SDS011;2729;50.056;8.678;2023-02-21T04:29:07;4.40;;;3.20;;
5412;SDS011;2729;50.056;8.678;2023-02-21T04:31:33;2.67;;;2.47;;
5412;SDS011;2729;50.056;8.678;2023-02-21T04:34:03;5.47;;;3.10;;
5412;SDS011;2729;50.056;8.678;2023-02-21T04:36:29;5.07;;;3.17;;
5412;SDS011;2729;50.056;8.678;2023-02-21T04:38:56;4.87;;;3.27;;
5412;SDS011;2729;50.056;8.678;2023-02-21T04:41:22;5.57;;;3.03;;
5412;SDS011;2729;50.056;8.678;2023-02-21T04:43:48;12.97;;;4.43;;
5412;SDS011;2729;50.056;8.678;2023-02-21T04:46:15;10.03;;;3.97;;
5412;SDS011;2729;50.056;8.678;2023-02-21T04:48:45;7.00;;;3.80;;
5412;SDS011;2729;50.056;8.678;2023-02-21T04:51:13;5.13;;;2.90;;
5412;SDS011;2729;50.056;8.678;2023-02-21T04:53:41;8.30;;;3.90;;
5412;SDS011;2729;50.056;8.678;2023-02-21T04:56:07;3.70;;;3.30;;
5412;SDS011;2729;50.056;8.678;2023-02-21T04:58:33;8.30;;;3.43;;
5412;SDS011;2729;50.056;8.678;2023-02-21T05:00:59;5.87;;;3.57;;
5412;SDS011;2729;50.056;8.678;2023-02-21T05:03:25;8.67;;;3.77;;
5412;SDS011;2729;50.056;8.678;2023-02-21T05:05:51;7.20;;;4.00;;
5412;SDS011;2729;50.056;8.678;2023-02-21T05:08:17;8.50;;;4.00;;
5412;SDS011;2729;50.056;8.678;2023-02-21T05:10:43;14.00;;;5.03;;
5412;SDS011;2729;50.056;8.678;2023-02-21T05:13:11;8.77;;;4.37;;
5412;SDS011;2729;50.056;8.678;2023-02-21T05:15:37;10.40;;;4.97;;
5412;SDS011;2729;50.056;8.678;2023-02-21T05:18:03;10.50;;;5.00;;
5412;SDS011;2729;50.056;8.678;2023-02-21T05:20:29;10.30;;;4.57;;
5412;SDS011;2729;50.056;8.678;2023-02-21T05:22:55;8.13;;;4.80;;
5412;SDS011;2729;50.056;8.678;2023-02-21T05:25:22;6.90;;;4.80;;
5412;SDS011;2729;50.056;8.678;2023-02-21T05:27:50;5.87;;;4.23;;
5412;SDS011;2729;50.056;8.678;2023-02-21T05:30:18;10.33;;;5.10;;
5412;SDS011;2729;50.056;8.678;2023-02-21T05:32:45;10.37;;;4.83;;
5412;SDS011;2729;50.056;8.678;2023-02-21T05:35:12;11.73;;;5.63;;
5412;SDS011;2729;50.056;8.678;2023-02-21T05:37:39;7.40;;;5.20;;
5412;SDS011;2729;50.056;8.678;2023-02-21T05:40:05;9.27;;;5.00;;
5412;SDS011;2729;50.056;8.678;2023-02-21T05:42:32;9.30;;;4.77;;
5412;SDS011;2729;50.056;8.678;2023-02-21T05:44:58;8.43;;;5.20;;
5412;SDS011;2729;50.056;8.678;2023-02-21T05:47:24;9.10;;;7.00;;
5412;SDS011;2729;50.056;8.678;2023-02-21T05:49:50;9.50;;;5.37;;
5412;SDS011;2729;50.056;8.678;2023-02-21T05:52:16;7.03;;;4.23;;
5412;SDS011;2729;50.056;8.678;2023-02-21T05:54:42;19.60;;;6.27;;
5412;SDS011;2729;50.056;8.678;2023-02-21T05:57:09;9.80;;;5.37;;
5412;SDS011;2729;50.056;8.678;2023-02-21T05:59:36;11.03;;;4.90;;
5412;SDS011;2729;50.056;8.678;2023-02-21T06:02:02;11.57;;;5.43;;
5412;SDS011;2729;50.056;8.678;2023-02-21T06:04:28;9.70;;;4.60;;
5412;SDS011;2729;50.056;8.678;2023-02-21T06:06:54;5.10;;;4.57;;
5412;SDS011;2729;50.056;8.678;2023-02-21T06:09:20;7.73;;;5.00;;
5412;SDS011;2729;50.056;8.678;2023-02-21T06:11:46;7.37;;;4.90;;
5412;SDS011;2729;50.056;8.678;2023-02-21T06:14:13;6.93;;;4.90;;
5412;SDS011;2729;50.056;8.678;2023-02-21T06:16:41;11.20;;;5.20;;
5412;SDS011;2729;50.056;8.678;2023-02-21T06:19:07;9.63;;;5.30;;
5412;SDS011;2729;50.056;8.678;2023-02-21T06:21:34;7.43;;;4.97;;
5412;SDS011;2729;50.056;8.678;2023-02-21T06:24:00;7.83;;;4.70;;
5412;SDS011;2729;50.056;8.678;2023-02-21T06:26:27;11.70;;;5.27;;
5412;SDS011;2729;50.056;8.678;2023-02-21T06:28:53;11.70;;;5.23;;
5412;SDS011;2729;50.056;8.678;2023-02-21T06:31:19;11.37;;;5.97;;
5412;SDS011;2729;50.056;8.678;2023-02-21T06:33:46;23.00;;;7.10;;
5412;SDS011;2729;50.056;8.678;2023-02-21T06:36:14;15.93;;;5.67;;
5412;SDS011;2729;50.056;8.678;2023-02-21T06:38:46;13.30;;;5.87;;
5412;SDS011;2729;50.056;8.678;2023-02-21T06:41:14;9.03;;;5.87;;
5412;SDS011;2729;50.056;8.678;2023-02-21T06:43:41;8.70;;;5.67;;
5412;SDS011;2729;50.056;8.678;2023-02-21T06:46:07;9.83;;;7.13;;
5412;SDS011;2729;50.056;8.678;2023-02-21T06:48:33;14.23;;;7.20;;
5412;SDS011;2729;50.056;8.678;2023-02-21T06:50:59;15.33;;;5.70;;
5412;SDS011;2729;50.056;8.678;2023-02-21T06:53:25;9.70;;;6.10;;
5412;SDS011;2729;50.056;8.678;2023-02-21T06:55:51;11.13;;;5.20;;
5412;SDS011;2729;50.056;8.678;2023-02-21T06:58:17;9.33;;;6.53;;
5412;SDS011;2729;50.056;8.678;2023-02-21T07:00:43;9.40;;;6.20;;
5412;SDS011;2729;50.056;8.678;2023-02-21T07:03:09;9.70;;;6.00;;
5412;SDS011;2729;50.056;8.678;2023-02-21T07:05:35;14.13;;;7.03;;
5412;SDS011;2729;50.056;8.678;2023-02-21T07:08:03;12.53;;;7.07;;
5412;SDS011;2729;50.056;8.678;2023-02-21T07:10:29;20.13;;;7.53;;
5412;SDS011;2729;50.056;8.678;2023-02-21T07:12:55;16.93;;;7.30;;
5412;SDS011;2729;50.056;8.678;2023-02-21T07:15:21;17.77;;;7.10;;
5412;SDS011;2729;50.056;8.678;2023-02-21T07:17:47;14.23;;;7.73;;
5412;SDS011;2729;50.056;8.678;2023-02-21T07:20:13;10.40;;;6.23;;
5412;SDS011;2729;50.056;8.678;2023-02-21T07:22:39;12.23;;;6.30;;
5412;SDS011;2729;50.056;8.678;2023-02-21T07:25:05;19.40;;;7.50;;
5412;SDS011;2729;50.056;8.678;2023-02-21T07:27:31;9.67;;;7.30;;
5412;SDS011;2729;50.056;8.678;2023-02-21T07:29:57;10.60;;;6.83;;
5412;SDS011;2729;50.056;8.678;2023-02-21T07:32:23;15.57;;;7.47;;
5412;SDS011;2729;50.056;8.678;2023-02-21T07:34:49;11.50;;;6.63;;
5412;SDS011;2729;50.056;8.678;2023-02-21T07:37:15;15.10;;;7.40;;
5412;SDS011;2729;50.056;8.678;2023-02-21T07:39:41;14.60;;;7.30;;
5412;SDS011;2729;50.056;8.678;2023-02-21T07:42:07;13.40;;;7.27;;
5412;SDS011;2729;50.056;8.678;2023-02-21T07:44:33;13.47;;;7.30;;
5412;SDS011;2729;50.056;8.678;2023-02-21T07:46:59;11.30;;;7.50;;
5412;SDS011;2729;50.056;8.678;2023-02-21T07:49:25;10.80;;;6.80;;
5412;SDS011;2729;50.056;8.678;2023-02-21T07:51:51;12.93;;;7.57;;
5412;SDS011;2729;50.056;8.678;2023-02-21T07:54:17;10.37;;;6.73;;
5412;SDS011;2729;50.056;8.678;2023-02-21T07:56:43;10.33;;;6.83;;
5412;SDS011;2729;50.056;8.678;2023-02-21T07:59:10;10.10;;;6.63;;
5412;SDS011;2729;50.056;8.678;2023-02-21T08:01:36;15.40;;;7.73;;
5412;SDS011;2729;50.056;8.678;2023-02-21T08:04:02;13.90;;;7.43;;
5412;SDS011;2729;50.056;8.678;2023-02-21T08:06:28;11.37;;;6.67;;
5412;SDS011;2729;50.056;8.678;2023-02-21T08:08:54;10.07;;;6.90;;
5412;SDS011;2729;50.056;8.678;2023-02-21T08:11:20;13.60;;;7.30;;
5412;SDS011;2729;50.056;8.678;2023-02-21T08:13:46;14.20;;;7.40;;
5412;SDS011;2729;50.056;8.678;2023-02-21T08:16:12;11.33;;;6.50;;
5412;SDS011;2729;50.056;8.678;2023-02-21T08:18:38;10.07;;;6.43;;
5412;SDS011;2729;50.056;8.678;2023-02-21T08:21:06;13.20;;;6.97;;
5412;SDS011;2729;50.056;8.678;2023-02-21T08:23:35;15.90;;;7.13;;
5412;SDS011;2729;50.056;8.678;2023-02-21T08:26:01;15.77;;;7.87;;
5412;SDS011;2729;50.056;8.678;2023-02-21T08:28:28;9.30;;;6.13;;
5412;SDS011;2729;50.056;8.678;2023-02-21T08:30:54;14.20;;;6.37;;
5412;SDS011;2729;50.056;8.678;2023-02-21T08:33:20;13.23;;;7.47;;
5412;SDS011;2729;50.056;8.678;2023-02-21T08:35:46;13.80;;;7.23;;
5412;SDS011;2729;50.056;8.678;2023-02-21T08:38:12;8.43;;;6.07;;
5412;SDS011;2729;50.056;8.678;2023-02-21T08:40:38;13.03;;;6.67;;
5412;SDS011;2729;50.056;8.678;2023-02-21T08:43:04;9.07;;;6.07;;
5412;SDS011;2729;50.056;8.678;2023-02-21T08:45:30;11.07;;;6.43;;
5412;SDS011;2729;50.056;8.678;2023-02-21T08:47:57;9.10;;;6.00;;
5412;SDS011;2729;50.056;8.678;2023-02-21T08:50:26;20.17;;;8.60;;
5412;SDS011;2729;50.056;8.678;2023-02-21T08:52:53;10.10;;;6.63;;
5412;SDS011;2729;50.056;8.678;2023-02-21T08:55:19;10.17;;;7.23;;
5412;SDS011;2729;50.056;8.678;2023-02-21T08:57:47;10.37;;;7.00;;
5412;SDS011;2729;50.056;8.678;2023-02-21T09:00:14;14.97;;;6.73;;
5412;SDS011;2729;50.056;8.678;2023-02-21T09:02:41;10.63;;;7.13;;
5412;SDS011;2729;50.056;8.678;2023-02-21T09:05:12;10.77;;;6.70;;
5412;SDS011;2729;50.056;8.678;2023-02-21T09:07:40;8.93;;;6.70;;
5412;SDS011;2729;50.056;8.678;2023-02-21T09:10:07;12.40;;;7.20;;
5412;SDS011;2729;50.056;8.678;2023-02-21T09:12:35;11.60;;;6.83;;
5412;SDS011;2729;50.056;8.678;2023-02-21T09:15:02;14.20;;;6.33;;
5412;SDS011;2729;50.056;8.678;2023-02-21T09:17:28;14.80;;;7.13;;
5412;SDS011;2729;50.056;8.678;2023-02-21T09:19:59;9.27;;;6.03;;
5412;SDS011;2729;50.056;8.678;2023-02-21T09:22:25;12.87;;;7.10;;
5412;SDS011;2729;50.056;8.678;2023-02-21T09:24:51;14.83;;;6.97;;
5412;SDS011;2729;50.056;8.678;2023-02-21T09:27:17;10.70;;;6.67;;
5412;SDS011;2729;50.056;8.678;2023-02-21T09:29:45;9.63;;;6.03;;
5412;SDS011;2729;50.056;8.678;2023-02-21T09:32:12;10.07;;;6.60;;
5412;SDS011;2729;50.056;8.678;2023-02-21T09:34:38;15.20;;;7.53;;
5412;SDS011;2729;50.056;8.678;2023-02-21T09:37:05;16.93;;;6.70;;
5412;SDS011;2729;50.056;8.678;2023-02-21T09:39:31;12.40;;;7.57;;
5412;SDS011;2729;50.056;8.678;2023-02-21T09:41:57;9.93;;;5.97;;
5412;SDS011;2729;50.056;8.678;2023-02-21T09:44:24;10.37;;;6.43;;
5412;SDS011;2729;50.056;8.678;2023-02-21T09:46:53;10.73;;;6.70;;
5412;SDS011;2729;50.056;8.678;2023-02-21T09:49:24;10.43;;;6.17;;
5412;SDS011;2729;50.056;8.678;2023-02-21T09:51:53;10.70;;;7.30;;
5412;SDS011;2729;50.056;8.678;2023-02-21T09:54:26;13.20;;;7.37;;
5412;SDS011;2729;50.056;8.678;2023-02-21T09:56:57;13.00;;;6.43;;
5412;SDS011;2729;50.056;8.678;2023-02-21T09:59:25;8.70;;;6.23;;
5412;SDS011;2729;50.056;8.678;2023-02-21T10:01:55;16.80;;;7.50;;
5412;SDS011;2729;50.056;8.678;2023-02-21T10:07:32;16.07;;;6.93;;
5412;SDS011;2729;50.056;8.678;2023-02-21T10:13:03;10.10;;;5.87;;
5412;SDS011;2729;50.056;8.678;2023-02-21T10:18:12;17.30;;;6.17;;
5412;SDS011;2729;50.056;8.678;2023-02-21T10:20:48;9.37;;;6.00;;
5412;SDS011;2729;50.056;8.678;2023-02-21T10:23:21;8.00;;;5.40;;
5412;SDS011;2729;50.056;8.678;2023-02-21T10:25:54;10.10;;;6.77;;
5412;SDS011;2729;50.056;8.678;2023-02-21T10:28:24;16.90;;;7.40;;
5412;SDS011;2729;50.056;8.678;2023-02-21T10:30:51;11.87;;;6.67;;
5412;SDS011;2729;50.056;8.678;2023-02-21T10:33:31;12.47;;;6.07;;
5412;SDS011;2729;50.056;8.678;2023-02-21T10:36:02;11.07;;;6.80;;
5412;SDS011;2729;50.056;8.678;2023-02-21T10:38:34;11.03;;;7.23;;
5412;SDS011;2729;50.056;8.678;2023-02-21T10:41:01;16.70;;;6.60;;
5412;SDS011;2729;50.056;8.678;2023-02-21T10:43:45;10.70;;;6.37;;
5412;SDS011;2729;50.056;8.678;2023-02-21T10:49:21;10.57;;;6.93;;
5412;SDS011;2729;50.056;8.678;2023-02-21T10:52:04;17.43;;;6.80;;
5412;SDS011;2729;50.056;8.678;2023-02-21T10:54:35;9.30;;;6.30;;
5412;SDS011;2729;50.056;8.678;2023-02-21T10:57:03;10.80;;;6.53;;
5412;SDS011;2729;50.056;8.678;2023-02-21T10:59:32;19.83;;;6.63;;
5412;SDS011;2729;50.056;8.678;2023-02-21T11:02:08;10.20;;;5.97;;
5412;SDS011;2729;50.056;8.678;2023-02-21T11:04:52;12.47;;;7.17;;
5412;SDS011;2729;50.056;8.678;2023-02-21T11:07:19;22.87;;;6.97;;
5412;SDS011;2729;50.056;8.678;2023-02-21T11:09:48;13.40;;;6.73;;
5412;SDS011;2729;50.056;8.678;2023-02-21T11:19:56;12.37;;;5.90;;
5412;SDS011;2729;50.056;8.678;2023-02-21T11:22:37;11.57;;;7.07;;
5412;SDS011;2729;50.056;8.678;2023-02-21T11:25:14;9.87;;;6.47;;
5412;SDS011;2729;50.056;8.678;2023-02-21T11:28:03;9.73;;;5.80;;
5412;SDS011;2729;50.056;8.678;2023-02-21T11:30:38;9.40;;;6.07;;
5412;SDS011;2729;50.056;8.678;2023-02-21T11:33:08;14.90;;;7.20;;
5412;SDS011;2729;50.056;8.678;2023-02-21T11:35:38;9.43;;;5.90;;
5412;SDS011;2729;50.056;8.678;2023-02-21T11:41:13;7.90;;;5.20;;
5412;SDS011;2729;50.056;8.678;2023-02-21T11:43:48;10.43;;;6.30;;
5412;SDS011;2729;50.056;8.678;2023-02-21T11:46:27;7.30;;;5.10;;
5412;SDS011;2729;50.056;8.678;2023-02-21T11:51:41;9.60;;;5.03;;
5412;SDS011;2729;50.056;8.678;2023-02-21T11:54:10;11.27;;;5.30;;
5412;SDS011;2729;50.056;8.678;2023-02-21T11:56:53;10.80;;;6.83;;
5412;SDS011;2729;50.056;8.678;2023-02-21T12:02:33;9.93;;;5.87;;
5412;SDS011;2729;50.056;8.678;2023-02-21T12:05:31;7.90;;;5.17;;
5412;SDS011;2729;50.056;8.678;2023-02-21T12:08:16;12.70;;;6.20;;
5412;SDS011;2729;50.056;8.678;2023-02-21T12:11:06;8.63;;;5.93;;
5412;SDS011;2729;50.056;8.678;2023-02-21T12:13:50;10.30;;;6.17;;
5412;SDS011;2729;50.056;8.678;2023-02-21T12:19:34;15.33;;;6.80;;
5412;SDS011;2729;50.056;8.678;2023-02-21T12:27:42;10.23;;;6.07;;
5412;SDS011;2729;50.056;8.678;2023-02-21T12:30:17;10.93;;;5.70;;
5412;SDS011;2729;50.056;8.678;2023-02-21T12:32:47;9.30;;;5.40;;
5412;SDS011;2729;50.056;8.678;2023-02-21T12:35:32;8.70;;;5.10;;
5412;SDS011;2729;50.056;8.678;2023-02-21T12:44:05;13.27;;;6.07;;
5412;SDS011;2729;50.056;8.678;2023-02-21T12:46:47;9.90;;;6.57;;
5412;SDS011;2729;50.056;8.678;2023-02-21T12:49:28;9.17;;;5.50;;
5412;SDS011;2729;50.056;8.678;2023-02-21T12:52:14;9.63;;;5.80;;
5412;SDS011;2729;50.056;8.678;2023-02-21T12:54:51;11.77;;;5.57;;
5412;SDS011;2729;50.056;8.678;2023-02-21T12:57:30;10.40;;;5.47;;
5412;SDS011;2729;50.056;8.678;2023-02-21T13:00:14;3.73;;;3.40;;
5412;SDS011;2729;50.056;8.678;2023-02-21T13:02:44;7.20;;;3.10;;
5412;SDS011;2729;50.056;8.678;2023-02-21T13:06:17;3.57;;;2.23;;
5412;SDS011;2729;50.056;8.678;2023-02-21T13:08:30;9.53;;;5.27;;
5412;SDS011;2729;50.056;8.678;2023-02-21T13:11:21;8.07;;;5.70;;
5412;SDS011;2729;50.056;8.678;2023-02-21T13:13:54;6.60;;;4.80;;
5412;SDS011;2729;50.056;8.678;2023-02-21T13:16:22;7.37;;;5.17;;
5412;SDS011;2729;50.056;8.678;2023-02-21T13:19:02;13.10;;;5.47;;
5412;SDS011;2729;50.056;8.678;2023-02-21T13:24:30;7.30;;;4.40;;
5412;SDS011;2729;50.056;8.678;2023-02-21T13:30:11;7.60;;;4.80;;
5412;SDS011;2729;50.056;8.678;2023-02-21T13:32:52;5.83;;;4.03;;
5412;SDS011;2729;50.056;8.678;2023-02-21T13:35:23;7.67;;;5.20;;
5412;SDS011;2729;50.056;8.678;2023-02-21T13:37:54;7.03;;;4.70;;
5412;SDS011;2729;50.056;8.678;2023-02-21T13:40:23;8.30;;;5.00;;
5412;SDS011;2729;50.056;8.678;2023-02-21T13:43:00;7.43;;;4.97;;
5412;SDS011;2729;50.056;8.678;2023-02-21T13:45:28;10.43;;;4.10;;
5412;SDS011;2729;50.056;8.678;2023-02-21T13:50:43;6.87;;;4.63;;
5412;SDS011;2729;50.056;8.678;2023-02-21T13:58:32;7.70;;;4.87;;
5412;SDS011;2729;50.056;8.678;2023-02-21T14:03:47;7.10;;;4.40;;
5412;SDS011;2729;50.056;8.678;2023-02-21T14:06:29;6.33;;;4.57;;
5412;SDS011;2729;50.056;8.678;2023-02-21T14:09:05;6.40;;;4.63;;
5412;SDS011;2729;50.056;8.678;2023-02-21T14:11:42;7.70;;;3.70;;
5412;SDS011;2729;50.056;8.678;2023-02-21T14:14:18;8.23;;;4.53;;
5412;SDS011;2729;50.056;8.678;2023-02-21T14:16:57;6.53;;;3.87;;
5412;SDS011;2729;50.056;8.678;2023-02-21T14:22:11;9.50;;;4.53;;
5412;SDS011;2729;50.056;8.678;2023-02-21T14:24:47;9.30;;;4.67;;
5412;SDS011;2729;50.056;8.678;2023-02-21T14:29:44;4.80;;;4.10;;
5412;SDS011;2729;50.056;8.678;2023-02-21T14:32:31;7.83;;;5.00;;
5412;SDS011;2729;50.056;8.678;2023-02-21T14:35:00;7.33;;;4.50;;
5412;SDS011;2729;50.056;8.678;2023-02-21T14:37:43;6.70;;;3.87;;
5412;SDS011;2729;50.056;8.678;2023-02-21T14:40:19;7.00;;;3.10;;
5412;SDS011;2729;50.056;8.678;2023-02-21T15:02:42;10.53;;;3.47;;
5412;SDS011;2729;50.056;8.678;2023-02-21T15:08:11;5.30;;;4.27;;
5412;SDS011;2729;50.056;8.678;2023-02-21T15:10:42;9.90;;;4.07;;
5412;SDS011;2729;50.056;8.678;2023-02-21T15:13:25;4.93;;;3.33;;
5412;SDS011;2729;50.056;8.678;2023-02-21T15:18:30;2.93;;;2.63;;
5412;SDS011;2729;50.056;8.678;2023-02-21T15:21:07;12.40;;;3.90;;
5412;SDS011;2729;50.056;8.678;2023-02-21T15:23:36;3.93;;;1.93;;
5412;SDS011;2729;50.056;8.678;2023-02-21T15:29:05;4.83;;;3.00;;
5412;SDS011;2729;50.056;8.678;2023-02-21T15:31:44;3.17;;;2.87;;
5412;SDS011;2729;50.056;8.678;2023-02-21T15:34:22;15.03;;;3.93;;
5412;SDS011;2729;50.056;8.678;2023-02-21T15:36:59;5.20;;;4.10;;
5412;SDS011;2729;50.056;8.678;2023-02-21T15:39:30;7.13;;;4.37;;
5412;SDS011;2729;50.056;8.678;2023-02-21T15:41:59;4.30;;;3.83;;
5412;SDS011;2729;50.056;8.678;2023-02-21T15:44:39;9.30;;;4.37;;
5412;SDS011;2729;50.056;8.678;2023-02-21T15:47:14;8.07;;;2.80;;
5412;SDS011;2729;50.056;8.678;2023-02-21T15:49:44;5.23;;;3.43;;
5412;SDS011;2729;50.056;8.678;2023-02-21T15:52:26;2.90;;;2.30;;
5412;SDS011;2729;50.056;8.678;2023-02-21T15:55:14;6.30;;;3.93;;
5412;SDS011;2729;50.056;8.678;2023-02-21T16:00:25;6.33;;;4.07;;
5412;SDS011;2729;50.056;8.678;2023-02-21T16:06:08;4.57;;;3.73;;
5412;SDS011;2729;50.056;8.678;2023-02-21T16:11:36;6.27;;;4.47;;
5412;SDS011;2729;50.056;8.678;2023-02-21T16:14:22;6.93;;;4.10;;
5412;SDS011;2729;50.056;8.678;2023-02-21T16:17:05;10.63;;;4.17;;
5412;SDS011;2729;50.056;8.678;2023-02-21T16:19:37;4.83;;;3.80;;
5412;SDS011;2729;50.056;8.678;2023-02-21T16:25:10;3.83;;;3.20;;
5412;SDS011;2729;50.056;8.678;2023-02-21T16:27:38;6.97;;;3.90;;
5412;SDS011;2729;50.056;8.678;2023-02-21T16:30:06;8.00;;;3.37;;
5412;SDS011;2729;50.056;8.678;2023-02-21T16:32:36;10.17;;;4.57;;
5412;SDS011;2729;50.056;8.678;2023-02-21T16:35:04;8.80;;;5.80;;
5412;SDS011;2729;50.056;8.678;2023-02-21T16:37:30;12.63;;;6.10;;
5412;SDS011;2729;50.056;8.678;2023-02-21T16:39:56;7.73;;;5.50;;
5412;SDS011;2729;50.056;8.678;2023-02-21T16:42:22;4.67;;;3.47;;
5412;SDS011;2729;50.056;8.678;2023-02-21T16:44:48;4.60;;;2.93;;
5412;SDS011;2729;50.056;8.678;2023-02-21T16:47:15;4.90;;;2.93;;
5412;SDS011;2729;50.056;8.678;2023-02-21T16:49:42;6.53;;;2.83;;
5412;SDS011;2729;50.056;8.678;2023-02-21T16:52:15;4.33;;;3.50;;
5412;SDS011;2729;50.056;8.678;2023-02-21T16:54:42;12.17;;;3.20;;
5412;SDS011;2729;50.056;8.678;2023-02-21T16:57:08;7.77;;;3.10;;
5412;SDS011;2729;50.056;8.678;2023-02-21T16:59:35;8.30;;;3.10;;
5412;SDS011;2729;50.056;8.678;2023-02-21T17:02:02;5.13;;;3.00;;
5412;SDS011;2729;50.056;8.678;2023-02-21T17:04:29;3.30;;;2.80;;
5412;SDS011;2729;50.056;8.678;2023-02-21T17:06:56;4.50;;;3.00;;
5412;SDS011;2729;50.056;8.678;2023-02-21T17:09:26;11.33;;;3.40;;
5412;SDS011;2729;50.056;8.678;2023-02-21T17:11:53;3.37;;;3.00;;
5412;SDS011;2729;50.056;8.678;2023-02-21T17:14:20;5.10;;;2.70;;
5412;SDS011;2729;50.056;8.678;2023-02-21T17:16:46;2.87;;;2.53;;
5412;SDS011;2729;50.056;8.678;2023-02-21T17:19:13;4.10;;;2.73;;
5412;SDS011;2729;50.056;8.678;2023-02-21T17:21:41;4.17;;;3.33;;
5412;SDS011;2729;50.056;8.678;2023-02-21T17:24:08;4.40;;;2.93;;
5412;SDS011;2729;50.056;8.678;2023-02-21T17:26:35;5.00;;;3.00;;
5412;SDS011;2729;50.056;8.678;2023-02-21T17:29:03;3.17;;;2.63;;
5412;SDS011;2729;50.056;8.678;2023-02-21T17:31:29;3.77;;;2.27;;
5412;SDS011;2729;50.056;8.678;2023-02-21T17:33:55;3.13;;;2.57;;
5412;SDS011;2729;50.056;8.678;2023-02-21T17:36:23;4.07;;;2.60;;
5412;SDS011;2729;50.056;8.678;2023-02-21T17:38:50;4.03;;;3.30;;
5412;SDS011;2729;50.056;8.678;2023-02-21T17:41:16;4.80;;;3.30;;
5412;SDS011;2729;50.056;8.678;2023-02-21T17:43:42;4.80;;;2.77;;
5412;SDS011;2729;50.056;8.678;2023-02-21T17:46:09;5.27;;;3.00;;
5412;SDS011;2729;50.056;8.678;2023-02-21T17:48:36;3.70;;;2.90;;
5412;SDS011;2729;50.056;8.678;2023-02-21T17:51:02;2.97;;;2.27;;
5412;SDS011;2729;50.056;8.678;2023-02-21T17:53:28;5.00;;;2.90;;